Time;durP1;ratioP1;P1;durP2;ratioP2;P2;SDS_P1;SDS_P2;PMS_P1;PMS_P2;Temp;Humidity;BMP_temperature;BMP_pressure;BME280_temperature;BME280_humidity;BME280_pressure;Samples;Min_cycle;Max_cycle;Signal;HPM_P1;HPM_P2
2022/07/24 00:00:28;;;;;;;25.43;19.50;;;;;;;21.36;93.56;100666.17;1800529;79;25852;-78
2022/07/24 00:02:56;;;;;;;21.87;18.02;;;;;;;21.35;93.51;100669.17;1791932;78;25996;-77
2022/07/24 00:05:22;;;;;;;22.98;18.80;;;;;;;21.32;93.70;100669.70;1794842;78;27432;-78
2022/07/24 00:07:48;;;;;;;20.00;17.70;;;;;;;21.31;93.66;100674.31;1787586;78;26547;-78
2022/07/24 00:10:15;;;;;;;20.85;18.30;;;;;;;21.30;93.99;100679.47;1790260;78;26502;-77
2022/07/24 00:12:41;;;;;;;22.17;18.02;;;;;;;21.27;93.88;100679.16;1790878;78;26213;-78
2022/07/24 00:15:09;;;;;;;25.10;18.60;;;;;;;21.23;94.03;100684.31;1795489;78;25947;-78
2022/07/24 00:17:35;;;;;;;23.40;18.17;;;;;;;21.20;94.18;100677.99;1794603;78;27432;-78
2022/07/24 00:20:03;;;;;;;20.20;17.98;;;;;;;21.18;94.24;100680.68;1795320;78;26726;-77
2022/07/24 00:22:29;;;;;;;20.55;17.73;;;;;;;21.13;94.30;100682.80;1797042;78;25820;-77
2022/07/24 00:24:56;;;;;;;19.45;17.35;;;;;;;21.07;94.44;100689.27;1789160;79;26055;-77
2022/07/24 00:27:22;;;;;;;21.87;17.65;;;;;;;21.01;94.42;100693.50;1804482;79;25875;-79
2022/07/24 00:29:49;;;;;;;20.05;17.85;;;;;;;20.94;94.60;100690.13;1802459;79;27412;-78
2022/07/24 00:32:15;;;;;;;22.87;17.60;;;;;;;20.88;94.67;100691.98;1791956;78;25763;-78
2022/07/24 00:34:42;;;;;;;21.75;17.95;;;;;;;20.87;94.92;100694.40;1800941;78;25864;-77
2022/07/24 00:37:08;;;;;;;25.12;17.95;;;;;;;20.87;94.90;100699.84;1778352;78;26236;-77
2022/07/24 00:39:35;;;;;;;19.32;17.12;;;;;;;20.84;95.14;100698.17;1804636;78;25876;-78
2022/07/24 00:42:02;;;;;;;23.80;16.87;;;;;;;20.78;95.03;100703.27;1789778;78;28338;-77
2022/07/24 00:44:28;;;;;;;25.23;16.77;;;;;;;20.71;94.92;100698.84;1796841;78;25899;-79
2022/07/24 00:46:54;;;;;;;20.15;15.93;;;;;;;20.66;95.43;100703.36;1796053;78;25778;-77
2022/07/24 00:49:21;;;;;;;27.50;16.93;;;;;;;20.59;95.64;100708.18;1801980;78;25760;-77
2022/07/24 00:51:51;;;;;;;19.40;16.45;;;;;;;20.54;95.64;100709.45;1792228;78;26071;-78
2022/07/24 00:54:20;;;;;;;19.55;16.82;;;;;;;20.52;95.61;100712.44;1789958;78;27591;-78
2022/07/24 00:56:50;;;;;;;20.92;16.95;;;;;;;20.49;95.79;100715.64;1804998;78;25792;-77
2022/07/24 00:59:18;;;;;;;20.57;16.80;;;;;;;20.44;95.86;100716.11;1801028;78;26536;-78
2022/07/24 01:01:46;;;;;;;26.48;16.82;;;;;;;20.40;96.02;100723.92;1795311;78;25535;-76
2022/07/24 01:04:13;;;;;;;17.27;14.55;;;;;;;20.35;96.01;100721.67;1796315;79;25922;-77
2022/07/24 01:06:47;;;;;;;22.02;13.85;;;;;;;20.27;95.59;100722.92;1765579;80;27608;-76
2022/07/24 01:09:15;;;;;;;14.35;12.35;;;;;;;20.19;95.54;100725.99;1780168;79;25988;-77
2022/07/24 01:11:42;;;;;;;13.85;12.50;;;;;;;20.12;95.18;100719.91;1796325;78;26246;-76
2022/07/24 01:14:11;;;;;;;16.27;11.63;;;;;;;20.07;95.05;100713.55;1797966;79;26038;-76
2022/07/24 01:16:37;;;;;;;15.88;10.35;;;;;;;20.02;95.07;100722.43;1805442;78;25933;-76
2022/07/24 01:19:04;;;;;;;14.90;11.12;;;;;;;19.93;94.82;100720.65;1790666;78;27411;-77
2022/07/24 01:21:31;;;;;;;12.15;8.65;;;;;;;19.87;95.01;100724.87;1789027;78;25699;-76
2022/07/24 01:23:57;;;;;;;11.63;7.45;;;;;;;19.79;94.09;100725.28;1791033;78;25732;-78
2022/07/24 01:26:24;;;;;;;11.65;6.70;;;;;;;19.72;93.39;100730.03;1796219;78;25936;-79
2022/07/24 01:28:50;;;;;;;8.53;5.78;;;;;;;19.66;92.40;100739.16;1795611;78;26394;-78
2022/07/24 01:31:17;;;;;;;8.00;5.42;;;;;;;19.56;91.59;100738.45;1807319;78;28228;-77
2022/07/24 01:33:43;;;;;;;6.95;4.80;;;;;;;19.50;90.76;100739.95;1799069;79;25732;-77
2022/07/24 01:36:09;;;;;;;7.42;3.60;;;;;;;19.42;90.30;100745.77;1793192;79;25286;-78
2022/07/24 01:38:35;;;;;;;5.30;2.80;;;;;;;19.35;89.30;100747.78;1786824;80;25801;-77
2022/07/24 01:41:02;;;;;;;4.05;3.33;;;;;;;19.26;88.13;100750.02;1789422;79;26500;-78
2022/07/24 01:43:28;;;;;;;6.15;2.72;;;;;;;19.15;87.90;100754.94;1797780;78;28345;-77
2022/07/24 01:45:54;;;;;;;4.62;3.05;;;;;;;19.01;87.14;100761.14;1806878;78;25767;-77
2022/07/24 01:48:21;;;;;;;3.50;2.80;;;;;;;18.93;87.58;100762.03;1793162;79;25723;-77
2022/07/24 01:50:47;;;;;;;9.85;3.42;;;;;;;18.86;87.56;100766.78;1798728;79;25638;-77
2022/07/24 01:53:13;;;;;;;4.35;3.10;;;;;;;18.84;87.71;100767.55;1796912;79;26076;-77
2022/07/24 01:55:40;;;;;;;8.63;3.02;;;;;;;18.87;87.78;100769.77;1788427;79;28200;-78
2022/07/24 01:58:06;;;;;;;12.45;3.20;;;;;;;18.90;87.73;100772.03;1794397;78;25786;-78
2022/07/24 02:00:32;;;;;;;8.95;3.20;;;;;;;18.89;87.21;100772.55;1802847;78;25913;-77
2022/07/24 02:02:59;;;;;;;6.67;2.65;;;;;;;18.92;87.38;100772.62;1803901;78;26550;-78
2022/07/24 02:05:26;;;;;;;8.23;2.72;;;;;;;18.96;87.32;100771.91;1800940;78;25869;-77
2022/07/24 02:07:58;;;;;;;7.83;2.60;;;;;;;19.02;87.25;100769.59;1798321;78;27494;-78
2022/07/24 02:10:27;;;;;;;4.10;2.80;;;;;;;19.09;87.09;100769.47;1800205;78;26412;-78
2022/07/24 02:12:54;;;;;;;5.50;3.10;;;;;;;19.14;87.01;100765.48;1798885;78;26287;-78
2022/07/24 02:15:21;;;;;;;6.10;2.70;;;;;;;19.12;86.30;100773.88;1787678;78;26095;-77
2022/07/24 02:17:51;;;;;;;3.95;2.72;;;;;;;19.11;86.58;100773.61;1790120;79;25905;-77
2022/07/24 02:20:18;;;;;;;6.03;2.87;;;;;;;19.16;86.58;100769.63;1792774;79;28239;-77
2022/07/24 02:22:45;;;;;;;10.80;3.20;;;;;;;19.21;86.41;100776.53;1794982;78;25881;-78
2022/07/24 02:25:13;;;;;;;6.00;2.65;;;;;;;19.22;85.98;100764.59;1768027;79;25838;-77
2022/07/24 02:27:40;;;;;;;5.42;3.00;;;;;;;19.22;85.71;100761.88;1795271;79;26531;-77
2022/07/24 02:30:11;;;;;;;4.87;3.20;;;;;;;19.18;85.29;100766.69;1802098;79;25798;-78
2022/07/24 02:32:38;;;;;;;5.78;3.10;;;;;;;19.13;85.29;100767.92;1794930;78;27430;-78
2022/07/24 02:35:05;;;;;;;8.83;3.25;;;;;;;19.12;85.34;100769.81;1806282;79;25775;-78
2022/07/24 02:37:32;;;;;;;6.35;2.98;;;;;;;19.12;85.40;100771.17;1796424;78;25786;-78
2022/07/24 02:39:58;;;;;;;7.37;2.92;;;;;;;19.10;85.29;100776.02;1791802;79;25888;-77
2022/07/24 02:42:24;;;;;;;4.78;2.85;;;;;;;19.10;85.36;100774.66;1789169;78;25997;-77
2022/07/24 02:44:51;;;;;;;4.55;3.35;;;;;;;19.09;85.37;100774.38;1782949;78;27445;-78
2022/07/24 02:47:17;;;;;;;8.50;4.15;;;;;;;19.10;85.30;100772.46;1786537;79;25959;-78
2022/07/24 02:49:43;;;;;;;3.30;3.00;;;;;;;19.10;85.36;100770.58;1805818;78;25739;-77
2022/07/24 02:52:10;;;;;;;6.42;3.62;;;;;;;19.13;85.36;100765.22;1795217;78;25762;-79
2022/07/24 02:54:36;;;;;;;6.30;3.50;;;;;;;19.15;85.22;100769.88;1797323;78;26492;-78
2022/07/24 02:57:03;;;;;;;7.20;3.98;;;;;;;19.13;85.03;100764.69;1788409;79;28272;-77
2022/07/24 02:59:29;;;;;;;4.53;3.33;;;;;;;19.10;84.91;100761.08;1803381;78;25743;-78
2022/07/24 03:01:55;;;;;;;4.30;3.72;;;;;;;19.06;84.72;100767.22;1796411;78;25701;-77
2022/07/24 03:04:22;;;;;;;4.60;3.77;;;;;;;19.06;84.83;100765.86;1800226;79;25933;-79
2022/07/24 03:06:48;;;;;;;5.85;4.20;;;;;;;19.04;84.82;100770.70;1790512;79;25793;-78
2022/07/24 03:09:15;;;;;;;6.28;3.70;;;;;;;19.04;84.77;100769.35;1806673;78;27457;-78
2022/07/24 03:11:41;;;;;;;8.05;3.92;;;;;;;19.03;84.72;100779.37;1797575;78;26516;-77
2022/07/24 03:14:07;;;;;;;4.80;3.30;;;;;;;19.00;84.62;100775.80;1795836;78;25779;-78
2022/07/24 03:16:34;;;;;;;8.98;3.90;;;;;;;19.00;84.76;100781.75;1798987;79;26516;-78
2022/07/24 03:19:00;;;;;;;5.83;3.80;;;;;;;18.96;84.58;100785.48;1796500;79;25825;-78
2022/07/24 03:21:26;;;;;;;6.17;3.85;;;;;;;18.96;84.60;100791.44;1800008;79;28284;-77
2022/07/24 03:23:53;;;;;;;5.65;3.72;;;;;;;18.93;84.37;100790.02;1793802;79;25724;-78
2022/07/24 03:26:19;;;;;;;7.15;3.75;;;;;;;18.92;84.40;100794.33;1791251;79;26528;-78
2022/07/24 03:28:45;;;;;;;6.78;3.50;;;;;;;18.90;84.41;100796.45;1793317;78;26183;-78
2022/07/24 03:31:12;;;;;;;6.72;3.67;;;;;;;18.86;84.34;100800.16;1796405;78;25834;-77
2022/07/24 03:33:38;;;;;;;6.17;3.42;;;;;;;18.83;84.30;100797.93;1799019;78;27428;-77
2022/07/24 03:36:05;;;;;;;4.05;3.22;;;;;;;18.79;84.41;100798.63;1796792;78;25920;-78
2022/07/24 03:38:31;;;;;;;4.80;3.55;;;;;;;18.79;84.47;100804.06;1775763;79;25317;-78
2022/07/24 03:40:58;;;;;;;5.25;3.52;;;;;;;18.80;84.56;100805.70;1725535;82;26434;-78
2022/07/24 03:43:24;;;;;;;10.28;3.40;;;;;;;18.79;84.55;100811.68;1737353;81;26483;-77
2022/07/24 03:45:50;;;;;;;7.75;4.45;;;;;;;18.80;84.62;100816.03;1740733;81;26882;-77
2022/07/24 03:48:17;;;;;;;6.17;3.72;;;;;;;18.81;84.60;100814.15;1757405;79;25277;-77
2022/07/24 03:50:43;;;;;;;4.83;4.12;;;;;;;18.82;84.56;100814.45;1760357;79;25781;-77
2022/07/24 03:53:09;;;;;;;7.37;3.87;;;;;;;18.83;84.73;100817.45;1766848;79;26489;-77
2022/07/24 03:55:35;;;;;;;8.68;4.28;;;;;;;18.83;84.59;100815.57;1727419;81;25624;-77
2022/07/24 03:58:04;;;;;;;8.85;4.33;;;;;;;18.80;84.68;100816.03;1789468;79;26058;-77
2022/07/24 04:00:31;;;;;;;7.90;3.80;;;;;;;18.74;84.67;100816.97;1794372;79;25703;-77
2022/07/24 04:02:57;;;;;;;7.15;3.58;;;;;;;18.73;85.03;100817.22;1797953;79;25705;-77
2022/07/24 04:05:23;;;;;;;9.15;4.12;;;;;;;18.72;85.32;100817.74;1792582;79;26637;-78
2022/07/24 04:07:50;;;;;;;10.20;4.72;;;;;;;18.72;85.46;100816.39;1799908;79;25794;-77
2022/07/24 04:10:16;;;;;;;10.53;4.60;;;;;;;18.73;85.65;100819.41;1794373;79;28246;-77
2022/07/24 04:12:42;;;;;;;8.15;4.53;;;;;;;18.74;85.87;100821.56;1789305;78;25257;-77
2022/07/24 04:15:09;;;;;;;6.80;4.20;;;;;;;18.74;85.92;100822.92;1793139;79;26494;-77
2022/07/24 04:17:43;;;;;;;10.48;4.58;;;;;;;18.73;86.10;100818.05;1795338;78;25888;-78
2022/07/24 04:20:11;;;;;;;9.35;5.20;;;;;;;18.74;86.19;100825.64;1781787;78;25802;-78
2022/07/24 04:22:38;;;;;;;11.33;4.80;;;;;;;18.75;86.46;100830.02;1789714;78;28294;-77
2022/07/24 04:25:07;;;;;;;10.15;4.87;;;;;;;18.81;86.70;100831.27;1802851;78;25861;-78
2022/07/24 04:27:33;;;;;;;8.43;4.80;;;;;;;18.85;86.59;100835.69;1797150;78;25891;-77
2022/07/24 04:29:59;;;;;;;10.90;4.83;;;;;;;18.87;86.40;100836.27;1797896;78;26109;-77
2022/07/24 04:32:26;;;;;;;11.45;5.08;;;;;;;18.86;86.64;100832.73;1790633;78;26424;-77
2022/07/24 04:34:52;;;;;;;12.28;5.25;;;;;;;18.89;86.86;100832.27;1791220;78;27457;-77
2022/07/24 04:37:18;;;;;;;8.10;4.67;;;;;;;18.86;86.67;100830.56;1791035;78;25821;-78
2022/07/24 04:39:46;;;;;;;9.10;4.75;;;;;;;18.85;86.95;100833.80;1793490;78;25797;-77
2022/07/24 04:42:13;;;;;;;9.55;5.25;;;;;;;18.86;87.15;100834.09;1798316;78;25981;-78
2022/07/24 04:44:39;;;;;;;7.83;4.47;;;;;;;18.92;87.08;100839.12;1794229;78;25317;-77
2022/07/24 04:47:05;;;;;;;12.18;4.87;;;;;;;19.02;87.18;100832.56;1789373;78;28292;-77
2022/07/24 04:49:32;;;;;;;11.20;4.67;;;;;;;19.08;86.97;100824.83;1791484;78;25937;-77
2022/07/24 04:51:58;;;;;;;10.38;5.08;;;;;;;19.12;86.14;100838.22;1790230;78;26413;-77
2022/07/24 04:54:24;;;;;;;10.82;4.40;;;;;;;19.15;86.24;100832.33;1789652;78;26529;-78
2022/07/24 04:56:51;;;;;;;9.13;5.00;;;;;;;19.13;85.54;100843.44;1791338;78;25754;-78
2022/07/24 04:59:17;;;;;;;7.20;4.50;;;;;;;19.13;85.44;100836.65;1787744;78;27437;-77
2022/07/24 05:01:43;;;;;;;5.65;3.87;;;;;;;19.21;85.62;100838.16;1793302;78;25876;-78
2022/07/24 05:04:09;;;;;;;8.40;4.22;;;;;;;19.22;84.96;100840.63;1792587;78;25774;-78
2022/07/24 05:06:36;;;;;;;7.97;4.40;;;;;;;19.21;84.82;100844.43;1791633;78;26569;-77
2022/07/24 05:09:03;;;;;;;14.50;4.47;;;;;;;19.25;84.89;100842.05;1797265;78;25682;-78
2022/07/24 05:11:29;;;;;;;9.05;4.67;;;;;;;19.29;84.83;100841.06;1788520;78;28251;-78
2022/07/24 05:13:55;;;;;;;18.15;6.03;;;;;;;19.29;84.73;100839.16;1757781;80;25701;-77
2022/07/24 05:16:22;;;;;;;6.17;3.72;;;;;;;19.32;84.58;100840.05;1760279;81;25818;-78
2022/07/24 05:18:48;;;;;;;5.62;3.50;;;;;;;19.39;84.31;100839.95;1755311;81;26709;-77
2022/07/24 05:21:15;;;;;;;5.95;3.47;;;;;;;19.43;83.78;100843.84;1760537;80;25760;-78
2022/07/24 05:23:43;;;;;;;5.08;3.45;;;;;;;19.45;83.56;100843.08;1755110;80;27450;-77
2022/07/24 05:26:09;;;;;;;6.20;2.60;;;;;;;19.48;83.59;100843.97;1758031;80;26410;-77
2022/07/24 05:28:35;;;;;;;3.27;2.42;;;;;;;19.47;82.00;100851.81;1767536;80;25831;-77
2022/07/24 05:31:02;;;;;;;4.47;2.40;;;;;;;19.45;81.75;100853.41;1763291;79;27048;-79
2022/07/24 05:33:28;;;;;;;4.60;2.37;;;;;;;19.45;81.11;100854.77;1768448;80;25706;-78
2022/07/24 05:35:54;;;;;;;7.60;2.08;;;;;;;19.42;80.39;100871.54;1762612;80;27454;-78
2022/07/24 05:38:21;;;;;;;5.53;1.87;;;;;;;19.37;79.73;100863.30;1764926;80;25682;-77
2022/07/24 05:40:47;;;;;;;4.03;2.12;;;;;;;19.29;79.26;100864.95;1764422;80;25821;-78
2022/07/24 05:43:16;;;;;;;4.90;1.70;;;;;;;19.29;80.03;100866.31;1770860;78;26481;-77
2022/07/24 05:45:42;;;;;;;8.58;2.05;;;;;;;19.33;79.82;100863.45;1763165;80;25722;-78
2022/07/24 05:48:08;;;;;;;5.92;1.92;;;;;;;19.32;79.46;100867.21;1759008;80;27442;-79
2022/07/24 05:50:34;;;;;;;6.15;1.60;;;;;;;19.36;79.01;100868.42;1762628;80;25727;-78
2022/07/24 05:53:01;;;;;;;3.77;1.62;;;;;;;19.34;77.40;100865.11;1765697;80;25905;-78
2022/07/24 05:55:28;;;;;;;3.40;1.50;;;;;;;19.33;77.46;100868.05;1760214;80;26669;-78
2022/07/24 05:57:55;;;;;;;2.95;1.40;;;;;;;19.31;77.29;100873.70;1755038;80;26096;-77
2022/07/24 06:00:22;;;;;;;6.15;1.77;;;;;;;19.28;76.22;100876.91;1761720;79;27453;-78
2022/07/24 06:02:48;;;;;;;4.60;1.57;;;;;;;19.24;76.10;100877.92;1759087;80;25751;-77
2022/07/24 06:05:15;;;;;;;3.85;1.30;;;;;;;19.27;76.29;100874.44;1761547;80;25843;-78
2022/07/24 06:07:42;;;;;;;2.85;1.40;;;;;;;19.30;76.67;100870.70;1756948;80;25800;-77
2022/07/24 06:10:09;;;;;;;3.55;1.10;;;;;;;19.39;77.15;100867.13;1756607;80;25983;-77
2022/07/24 06:12:36;;;;;;;3.75;1.90;;;;;;;19.48;77.08;100871.14;1757868;80;28330;-76
2022/07/24 06:15:03;;;;;;;3.67;2.60;;;;;;;19.62;76.96;100871.16;1792153;79;25793;-77
2022/07/24 06:17:29;;;;;;;3.47;2.65;;;;;;;19.68;76.28;100858.80;1789675;78;25912;-77
2022/07/24 06:19:55;;;;;;;4.85;2.92;;;;;;;19.77;75.90;100861.97;1789935;78;26577;-77
2022/07/24 06:22:22;;;;;;;4.65;2.75;;;;;;;19.84;75.39;100860.78;1790819;78;25931;-78
2022/07/24 06:24:48;;;;;;;4.92;3.12;;;;;;;19.86;74.38;100864.09;1794346;78;27444;-77
2022/07/24 06:27:14;;;;;;;6.33;2.67;;;;;;;19.89;74.38;100871.74;1791388;78;25807;-77
2022/07/24 06:29:41;;;;;;;7.12;2.80;;;;;;;19.89;74.47;100857.31;1794950;79;25737;-78
2022/07/24 06:32:07;;;;;;;2.70;2.45;;;;;;;19.91;74.09;100869.61;1788690;78;25705;-77
2022/07/24 06:34:33;;;;;;;3.37;2.35;;;;;;;19.91;73.42;100865.53;1793538;79;25765;-77
2022/07/24 06:37:00;;;;;;;4.65;2.12;;;;;;;19.93;73.61;100866.11;1795347;78;28026;-78
2022/07/24 06:39:26;;;;;;;4.22;1.90;;;;;;;19.98;74.15;100866.22;1799770;78;25777;-78
2022/07/24 06:41:52;;;;;;;3.62;1.65;;;;;;;20.07;73.88;100868.03;1795949;78;25887;-76
2022/07/24 06:44:25;;;;;;;4.22;1.50;;;;;;;20.12;73.95;100873.58;1794333;79;26927;-77
2022/07/24 06:46:51;;;;;;;7.50;2.27;;;;;;;20.18;73.30;100868.52;1797651;78;26405;-77
2022/07/24 06:49:18;;;;;;;2.25;1.35;;;;;;;20.21;72.75;100871.33;1808073;78;27428;-77
2022/07/24 06:51:44;;;;;;;3.08;1.52;;;;;;;20.22;72.58;100876.52;1796247;78;25883;-77
2022/07/24 06:54:10;;;;;;;7.65;1.50;;;;;;;20.26;71.97;100874.13;1799329;78;25718;-77
2022/07/24 06:56:36;;;;;;;5.55;1.67;;;;;;;20.32;72.58;100875.34;1800561;78;26377;-77
2022/07/24 06:59:03;;;;;;;3.17;1.37;;;;;;;20.38;71.42;100876.27;1799026;78;26408;-78
2022/07/24 07:01:29;;;;;;;8.90;2.20;;;;;;;20.32;71.68;100875.34;1793687;78;26893;-78
2022/07/24 07:03:55;;;;;;;2.75;2.15;;;;;;;20.34;71.88;100881.89;1764443;80;25716;-77
2022/07/24 07:06:22;;;;;;;3.22;1.60;;;;;;;20.37;71.50;100878.16;1735443;81;25907;-78
2022/07/24 07:08:48;;;;;;;2.27;1.32;;;;;;;20.41;71.26;100876.60;1797757;78;26535;-77
2022/07/24 07:11:15;;;;;;;6.83;1.70;;;;;;;20.46;71.10;100873.15;1795592;78;26512;-77
2022/07/24 07:13:41;;;;;;;5.10;1.20;;;;;;;20.50;70.88;100877.03;1786722;78;27448;-77
2022/07/24 07:16:08;;;;;;;3.58;1.40;;;;;;;20.55;70.55;100875.77;1799232;79;25757;-77
2022/07/24 07:18:36;;;;;;;5.92;1.47;;;;;;;20.58;70.41;100874.73;1791286;79;25833;-77
2022/07/24 07:21:04;;;;;;;2.70;1.40;;;;;;;20.61;69.90;100878.34;1796049;78;25800;-78
2022/07/24 07:23:30;;;;;;;3.60;1.20;;;;;;;20.61;69.98;100878.34;1796194;78;26113;-77
2022/07/24 07:25:56;;;;;;;2.40;1.30;;;;;;;20.71;70.26;100880.39;1797103;79;27597;-77
2022/07/24 07:28:23;;;;;;;1.82;1.20;;;;;;;20.78;68.81;100888.41;1795848;79;25531;-77
2022/07/24 07:30:49;;;;;;;3.67;1.20;;;;;;;20.75;68.09;100882.38;1795405;79;25955;-78
2022/07/24 07:33:15;;;;;;;2.83;1.37;;;;;;;20.76;67.03;100884.58;1800449;79;26337;-77
2022/07/24 07:35:42;;;;;;;3.22;1.60;;;;;;;20.78;68.99;100885.16;1794354;78;25943;-78
2022/07/24 07:38:08;;;;;;;4.35;1.30;;;;;;;20.86;67.82;100887.98;1799891;78;27506;-78
2022/07/24 07:40:34;;;;;;;3.75;1.37;;;;;;;20.87;67.58;100889.66;1791079;79;25662;-77
2022/07/24 07:43:01;;;;;;;2.25;1.30;;;;;;;20.87;68.08;100892.38;1795980;78;25856;-78
2022/07/24 07:45:27;;;;;;;2.40;1.52;;;;;;;20.96;68.34;100891.70;1796338;79;27058;-77
2022/07/24 07:47:54;;;;;;;2.33;1.62;;;;;;;21.02;68.15;100901.60;1792529;79;25901;-77
2022/07/24 07:50:20;;;;;;;4.83;1.60;;;;;;;21.07;67.54;100888.64;1791933;79;27426;-77
2022/07/24 07:52:46;;;;;;;2.98;1.47;;;;;;;21.08;67.67;100899.84;1790339;78;26106;-79
2022/07/24 07:55:13;;;;;;;5.80;1.72;;;;;;;21.05;67.21;100897.06;1797036;79;26384;-78
2022/07/24 07:57:41;;;;;;;2.65;1.50;;;;;;;21.12;68.44;100900.45;1797837;78;25873;-79
2022/07/24 08:00:09;;;;;;;4.65;1.80;;;;;;;21.19;68.59;100897.56;1791159;78;25684;-78
2022/07/24 08:02:38;;;;;;;2.70;1.57;;;;;;;21.29;68.34;100909.97;1795042;78;27457;-78
2022/07/24 08:05:06;;;;;;;2.98;2.10;;;;;;;21.26;67.39;100903.65;1801923;79;25931;-77
2022/07/24 08:07:33;;;;;;;2.87;1.50;;;;;;;21.26;67.21;100900.92;1800697;78;26373;-77
2022/07/24 08:10:00;;;;;;;6.12;1.75;;;;;;;21.28;67.60;100898.77;1796934;78;25772;-78
2022/07/24 08:12:27;;;;;;;5.05;1.77;;;;;;;21.36;66.81;100906.55;1795402;78;25790;-78
2022/07/24 08:14:53;;;;;;;4.60;1.75;;;;;;;21.37;67.46;100907.66;1800223;79;27456;-78
2022/07/24 08:17:20;;;;;;;4.28;1.65;;;;;;;21.45;67.59;100910.47;1794861;79;25805;-78
2022/07/24 08:19:46;;;;;;;4.47;1.30;;;;;;;21.58;68.20;100903.30;1797405;78;25703;-78
2022/07/24 08:22:12;;;;;;;2.37;1.70;;;;;;;21.64;67.26;100925.47;1798037;77;25830;-77
2022/07/24 08:24:39;;;;;;;5.85;1.70;;;;;;;21.60;66.14;100931.14;1798440;78;25836;-78
2022/07/24 08:27:06;;;;;;;1.50;1.40;;;;;;;21.48;65.68;100938.61;1794591;79;28306;-78
2022/07/24 08:29:32;;;;;;;2.83;2.08;;;;;;;21.39;65.80;100931.39;1786916;80;26025;-78
2022/07/24 08:31:59;;;;;;;6.58;1.50;;;;;;;21.30;65.95;100932.05;1786368;78;25988;-78
2022/07/24 08:34:25;;;;;;;3.58;1.52;;;;;;;21.31;67.26;100931.81;1802943;78;25818;-78
2022/07/24 08:36:51;;;;;;;1.87;1.45;;;;;;;21.32;66.16;100932.09;1795166;78;26099;-78
2022/07/24 08:39:18;;;;;;;3.40;1.60;;;;;;;21.29;66.46;100933.14;1791696;78;27429;-78
2022/07/24 08:41:44;;;;;;;1.92;1.30;;;;;;;21.27;66.88;100938.01;1795636;78;25863;-78
2022/07/24 08:44:12;;;;;;;1.40;1.30;;;;;;;21.17;65.74;100941.38;1794875;78;25644;-78
2022/07/24 08:46:40;;;;;;;5.25;1.82;;;;;;;21.05;66.25;100939.81;1789616;78;25796;-77
2022/07/24 08:49:13;;;;;;;1.40;1.30;;;;;;;20.97;65.69;100939.67;1787252;79;25779;-77
2022/07/24 08:51:42;;;;;;;3.15;1.60;;;;;;;20.87;66.28;100934.03;1802200;78;28134;-77
2022/07/24 08:54:10;;;;;;;4.83;1.57;;;;;;;20.80;66.69;100940.72;1795872;78;25735;-77
2022/07/24 08:56:41;;;;;;;2.90;2.58;;;;;;;20.82;67.51;100944.85;1789992;78;26477;-76
2022/07/24 08:59:19;;;;;;;7.22;2.50;;;;;;;20.87;68.02;100932.66;1786889;79;25784;-77
2022/07/24 09:01:48;;;;;;;3.80;3.02;;;;;;;20.97;66.99;100932.03;1791553;78;26088;-77
2022/07/24 09:04:45;;;;;;;3.35;2.45;;;;;;;21.11;67.53;100942.37;1794050;78;27430;-77
2022/07/24 09:07:23;;;;;;;4.55;1.90;;;;;;;21.25;67.55;100940.99;1799305;78;25735;-76
2022/07/24 09:12:45;;;;;;;5.33;2.40;;;;;;;21.57;67.26;100945.82;1649864;80;26449;-78
2022/07/24 09:15:17;;;;;;;3.15;2.70;;;;;;;21.69;67.13;100941.08;1661613;84;26475;-77
2022/07/24 09:17:58;;;;;;;3.45;3.15;;;;;;;21.76;66.93;100945.82;1688685;82;27472;-78
2022/07/24 09:20:28;;;;;;;3.02;2.72;;;;;;;21.83;67.10;100943.25;1700531;81;26563;-77
2022/07/24 09:22:57;;;;;;;4.22;3.20;;;;;;;21.83;64.59;100944.61;1723195;82;25846;-77
2022/07/24 09:25:28;;;;;;;2.80;2.50;;;;;;;21.77;65.36;100942.03;1730406;79;26742;-77
2022/07/24 09:27:59;;;;;;;2.60;2.40;;;;;;;21.76;65.00;100948.02;1746484;79;26417;-78
2022/07/24 09:30:39;;;;;;;2.72;2.52;;;;;;;21.89;66.50;100944.96;1736032;80;28273;-78
2022/07/24 09:33:14;;;;;;;2.95;2.72;;;;;;;22.06;66.54;100952.55;1741682;79;25947;-78
2022/07/24 09:35:43;;;;;;;4.22;2.10;;;;;;;22.30;66.79;100956.38;1745119;79;25978;-77
2022/07/24 09:38:14;;;;;;;3.00;2.70;;;;;;;22.44;65.26;100958.45;1739157;81;25949;-78
2022/07/24 09:40:47;;;;;;;1.62;1.52;;;;;;;22.45;64.38;100953.30;1736313;81;26584;-79
2022/07/24 09:43:24;;;;;;;2.33;1.95;;;;;;;22.40;64.15;100953.77;1739143;81;27470;-77
2022/07/24 09:46:12;;;;;;;3.30;2.27;;;;;;;22.37;64.91;100959.19;1743114;81;25943;-78
2022/07/24 09:48:39;;;;;;;2.35;2.15;;;;;;;22.36;64.09;100965.74;1735298;81;26037;-77
2022/07/24 09:51:14;;;;;;;4.92;1.98;;;;;;;22.32;64.09;100969.23;1739292;80;26573;-77
2022/07/24 09:53:44;;;;;;;4.17;1.80;;;;;;;22.29;64.32;100962.37;1737972;81;25283;-78
2022/07/24 09:56:14;;;;;;;2.90;2.05;;;;;;;22.23;64.31;100968.32;1748237;81;28354;-77
2022/07/24 09:58:51;;;;;;;1.60;1.50;;;;;;;22.24;64.56;100967.23;1742424;81;25858;-78
2022/07/24 10:01:21;;;;;;;2.02;1.60;;;;;;;22.30;64.11;100963.20;1738423;80;25851;-78
2022/07/24 10:03:49;;;;;;;2.17;1.65;;;;;;;22.32;63.85;100965.97;1730753;81;26238;-78
2022/07/24 10:06:21;;;;;;;2.55;1.65;;;;;;;22.28;63.13;100968.09;1743180;81;25903;-77
2022/07/24 10:08:50;;;;;;;3.15;1.30;;;;;;;22.08;63.52;100961.84;1743062;80;30540;-77
2022/07/24 10:11:18;;;;;;;2.35;1.50;;;;;;;22.04;64.28;100972.44;1741219;81;26325;-78
2022/07/24 10:13:45;;;;;;;2.80;1.77;;;;;;;21.98;64.26;100965.24;1735163;80;25887;-78
2022/07/24 10:16:18;;;;;;;2.70;1.85;;;;;;;21.89;64.16;100976.86;1741633;81;25804;-77
2022/07/24 10:18:58;;;;;;;3.00;1.80;;;;;;;21.77;64.04;100978.84;1732964;81;25764;-77
2022/07/24 10:21:31;;;;;;;2.17;1.92;;;;;;;21.65;64.32;100984.92;1745362;81;27464;-78
2022/07/24 10:24:12;;;;;;;3.77;2.00;;;;;;;21.59;64.73;100982.67;1738481;81;25757;-77
2022/07/24 10:26:47;;;;;;;3.05;2.12;;;;;;;21.54;64.59;100985.30;1743534;81;25939;-77
2022/07/24 10:29:20;;;;;;;1.90;1.80;;;;;;;21.50;64.50;100984.98;1737046;81;25978;-77
2022/07/24 10:31:52;;;;;;;2.95;1.82;;;;;;;21.50;65.60;100982.27;1736968;81;26416;-78
2022/07/24 10:34:35;;;;;;;2.62;2.10;;;;;;;21.51;64.93;100984.46;1731073;81;28400;-77
2022/07/24 10:37:42;;;;;;;4.78;2.22;;;;;;;21.51;65.26;100979.00;1744269;81;43159;-78
2022/07/24 10:40:46;;;;;;;2.15;1.95;;;;;;;21.57;65.39;100983.45;1731183;81;25792;-76
2022/07/24 10:43:21;;;;;;;4.00;2.12;;;;;;;21.67;65.11;100982.77;1738163;80;26785;-77
2022/07/24 10:46:02;;;;;;;3.27;1.80;;;;;;;21.73;65.68;100978.50;1728646;81;25784;-77
2022/07/24 10:48:35;;;;;;;2.27;2.08;;;;;;;21.75;65.27;100981.00;1736870;81;27673;-78
2022/07/24 10:51:06;;;;;;;1.55;1.42;;;;;;;21.79;65.57;100978.86;1736922;80;26491;-77
2022/07/24 10:53:39;;;;;;;;;;;;;;;21.83;64.68;100984.16;1740373;81;25825;-76
2022/07/24 10:56:25;;;;;;;3.27;2.25;;;;;;;21.79;64.69;100980.78;1739197;81;26549;-77
2022/07/24 10:59:02;;;;;;;4.45;2.00;;;;;;;21.82;65.16;100982.49;1729360;81;25753;-77
2022/07/24 11:01:45;;;;;;;3.02;2.60;;;;;;;21.83;64.58;100990.14;1747223;81;27471;-76
2022/07/24 11:04:26;;;;;;;4.00;2.47;;;;;;;21.87;65.20;100989.39;1686336;81;25906;-77
2022/07/24 11:07:12;;;;;;;3.55;3.15;;;;;;;21.92;65.07;100986.72;1724293;80;25784;-77
2022/07/24 11:10:07;;;;;;;2.92;2.42;;;;;;;22.00;65.36;100989.56;1728189;81;25756;-77
2022/07/24 11:12:39;;;;;;;3.67;2.02;;;;;;;22.00;64.23;100989.03;1725440;81;25834;-79
2022/07/24 11:17:51;;;;;;;2.20;1.72;;;;;;;22.00;65.00;100988.20;1759069;79;25985;-77
2022/07/24 11:20:21;;;;;;;2.15;1.87;;;;;;;22.03;64.57;100993.97;1729948;81;25733;-77
2022/07/24 11:22:52;;;;;;;3.55;1.92;;;;;;;22.04;64.28;100992.07;1713958;81;25879;-77
2022/07/24 11:25:26;;;;;;;2.92;2.10;;;;;;;22.12;64.84;100991.09;1748781;79;25801;-76
2022/07/24 11:28:00;;;;;;;5.87;2.35;;;;;;;22.19;64.67;100988.18;1741226;81;27460;-78
2022/07/24 11:30:30;;;;;;;3.67;1.52;;;;;;;22.29;64.48;100986.94;1729775;81;26384;-78
2022/07/24 11:32:59;;;;;;;3.05;1.65;;;;;;;22.36;63.73;100995.77;1741925;81;25925;-77